< < Back
Terminal Aerodrome Forecast


Current Version              Previous Versions:   1  2  3  4  5  6  7  8  9  

Terminal Aerodrome Forecast

771
FTUS44 KOHX 231700
TAFBNA
TAF
KBNA 231724Z 2318/2418 02010KT P6SM FEW250
     FM240200 VRB04KT P6SM SCT250
     FM241400 18010KT P6SM SCT040 SCT250=

Latest METAR

457
SAUS70 KWBC 241000 RRA
MTRBNA
METAR KBNA 240953Z 00000KT 10SM CLR 07/03 A2999 RMK AO2 SLP153
T00670028


USA.gov is the U.S. government's official web portal to all federal, state and local government web resources and services.